Terminal Aerodrome Forecast
Issued by NWS Charleston, WV

Home | Current Version | Previous Version | Text Only | Print | Product List | Glossary On
Versions: 1 2 3 4 5 6 7 8 9 10 11 12 13 14 15 16 17 18 19 20 21 22 23 24 25 26 27
000
FTUS41 KRLX 181120
TAFEKN
TAF
KEKN 181120Z 1812/1912 20002KT P6SM SHRA SCT015 BKN050
     FM181300 21003KT 6SM SHRA BKN035 OVC050
      TEMPO 1813/1815 3SM TSRA BR SCT010 OVC020CB
     FM181500 22004KT 5SM SHRA VCTS BKN008 OVC035CB
     FM181700 25006KT P6SM SHRA VCTS BKN020 OVC040CB
     FM181900 26008KT P6SM SCT030 BKN040
     FM182100 26007KT P6SM BKN040
     FM190100 26003KT P6SM FEW070
     FM190600 00000KT 3SM BR SCT001
     FM190800 00000KT 1/4SM FG VV001=

USA.gov is the U.S. government's official web portal to all federal, state and local government web resources and services.